createdAt,value
2019-03-16T00:01:56.490Z,47.20
2019-03-16T00:04:19.262Z,50.60
2019-03-16T00:06:50.747Z,50.40
2019-03-16T00:09:22.117Z,52.60
2019-03-16T00:11:53.681Z,52.00
2019-03-16T00:14:25.231Z,51.40
2019-03-16T00:16:56.995Z,49.40
2019-03-16T00:19:28.610Z,49.80
2019-03-16T00:22:00.045Z,52.60
2019-03-16T00:24:31.312Z,55.20
2019-03-16T00:27:02.524Z,49.40
2019-03-16T00:29:33.744Z,49.20
2019-03-16T00:32:13.388Z,51.00
2019-03-16T00:34:38.025Z,53.00
2019-03-16T00:37:09.961Z,54.40
2019-03-16T00:39:41.891Z,53.00
2019-03-16T00:42:13.112Z,54.00
2019-03-16T00:44:45.530Z,58.80
2019-03-16T00:47:16.809Z,54.60
2019-03-16T00:49:48.143Z,55.00
2019-03-16T00:52:19.633Z,53.60
2019-03-16T00:54:51.035Z,56.00
2019-03-16T00:57:22.242Z,56.00
2019-03-16T00:59:53.747Z,55.20
2019-03-16T01:02:27.402Z,55.80
2019-03-16T01:04:59.242Z,52.60
2019-03-16T01:07:30.940Z,53.00
2019-03-16T01:10:02.491Z,51.00
2019-03-16T01:12:33.946Z,48.40
2019-03-16T01:15:05.738Z,55.00
2019-03-16T01:17:37.381Z,53.00
2019-03-16T01:20:09.028Z,57.40
2019-03-16T01:22:40.637Z,57.00
2019-03-16T01:25:13.115Z,50.40
2019-03-16T01:27:45.807Z,59.00
2019-03-16T01:30:17.653Z,57.40
2019-03-16T01:32:49.452Z,54.00
2019-03-16T01:35:20.902Z,57.80
2019-03-16T01:37:52.139Z,61.40
2019-03-16T01:40:23.403Z,56.40
2019-03-16T01:42:54.869Z,56.20
2019-03-16T01:45:26.067Z,59.40
2019-03-16T01:47:57.452Z,58.40
2019-03-16T01:50:29.009Z,60.20
2019-03-16T01:53:00.413Z,57.80
2019-03-16T01:55:31.663Z,60.00
2019-03-16T01:58:02.982Z,53.60
2019-03-16T02:00:35.005Z,59.00
2019-03-16T02:03:06.430Z,45.80
2019-03-16T02:05:38.008Z,47.20
2019-03-16T02:08:09.378Z,53.00
2019-03-16T02:10:40.844Z,45.60
2019-03-16T02:13:13.327Z,58.40
2019-03-16T02:15:44.886Z,54.60
2019-03-16T02:18:16.185Z,55.60
2019-03-16T02:20:47.408Z,52.00
2019-03-16T02:23:18.863Z,52.00
2019-03-16T02:25:50.057Z,55.40
2019-03-16T02:28:21.693Z,55.20
2019-03-16T02:30:53.374Z,53.80
2019-03-16T02:33:24.686Z,55.60
2019-03-16T02:35:55.965Z,55.20
2019-03-16T02:38:27.557Z,55.00
2019-03-16T02:40:58.949Z,57.60
2019-03-16T02:43:30.439Z,60.00
2019-03-16T02:46:01.853Z,54.60
2019-03-16T02:48:33.366Z,52.80
2019-03-16T02:51:04.774Z,59.40
2019-03-16T02:53:37.198Z,68.00
2019-03-16T02:56:08.880Z,64.80
2019-03-16T02:58:40.267Z,64.40
2019-03-16T03:01:12.005Z,61.20
2019-03-16T03:03:43.301Z,68.20
2019-03-16T03:06:14.579Z,61.80
2019-03-16T03:08:45.907Z,66.20
2019-03-16T03:11:17.365Z,61.00
2019-03-16T03:13:48.716Z,68.00
2019-03-16T03:16:20.271Z,63.40
2019-03-16T03:18:51.931Z,64.80
2019-03-16T03:21:23.219Z,67.20
2019-03-16T03:23:54.833Z,63.40
2019-03-16T03:26:26.371Z,59.60
2019-03-16T03:28:57.975Z,60.40
2019-03-16T03:31:29.369Z,55.80
2019-03-16T03:34:02.807Z,59.60
2019-03-16T03:36:34.988Z,61.20
2019-03-16T03:39:08.393Z,58.40
2019-03-16T03:41:40.259Z,56.40
2019-03-16T03:44:12.007Z,51.40
2019-03-16T03:46:43.842Z,54.60
2019-03-16T03:49:15.567Z,55.00
2019-03-16T03:51:47.132Z,53.00
2019-03-16T03:54:18.998Z,52.60
2019-03-16T03:56:50.908Z,52.80
2019-03-16T03:59:23.153Z,53.40
2019-03-16T04:01:54.999Z,49.80
2019-03-16T04:04:27.056Z,45.60
2019-03-16T04:06:58.447Z,45.40
2019-03-16T04:09:30.219Z,41.60
2019-03-16T04:12:01.651Z,40.20
2019-03-16T04:14:33.268Z,38.80
2019-03-16T04:17:04.983Z,39.40
2019-03-16T04:19:38.297Z,42.00
2019-03-16T04:22:10.027Z,39.80
2019-03-16T04:24:45.147Z,37.80
2019-03-16T04:27:16.302Z,37.60
2019-03-16T04:29:48.084Z,38.80
2019-03-16T04:32:21.428Z,38.40
2019-03-16T04:34:52.800Z,39.40
2019-03-16T04:37:27.151Z,39.40
2019-03-16T04:39:58.717Z,38.00
2019-03-16T04:42:30.039Z,38.00
2019-03-16T04:45:01.402Z,39.00
2019-03-16T04:47:34.546Z,35.20
2019-03-16T04:50:06.059Z,35.20
2019-03-16T04:52:37.459Z,38.00
2019-03-16T04:55:08.751Z,38.40
2019-03-16T04:57:40.460Z,33.80
2019-03-16T05:00:12.415Z,36.00
2019-03-16T05:02:44.053Z,34.00
2019-03-16T05:05:16.331Z,32.60
2019-03-16T05:07:47.715Z,34.40
2019-03-16T05:10:19.040Z,31.20
2019-03-16T05:12:51.714Z,30.20
2019-03-16T05:15:23.198Z,28.00
2019-03-16T05:17:54.732Z,31.60
2019-03-16T05:20:26.501Z,29.00
2019-03-16T05:22:57.881Z,33.60
2019-03-16T05:25:29.204Z,26.80
2019-03-16T05:28:00.467Z,31.60
2019-03-16T05:30:31.996Z,29.40
2019-03-16T05:33:03.638Z,28.80
2019-03-16T05:35:35.911Z,27.00
2019-03-16T05:38:07.388Z,27.00
2019-03-16T05:40:38.781Z,28.40
2019-03-16T05:43:10.281Z,30.80
2019-03-16T05:45:41.569Z,30.80
2019-03-16T05:48:13.021Z,29.00
2019-03-16T05:50:44.532Z,29.20
2019-03-16T05:53:15.878Z,25.40
2019-03-16T05:55:48.045Z,32.00
2019-03-16T05:58:19.312Z,31.20
2019-03-16T06:00:52.140Z,30.80
2019-03-16T06:03:24.221Z,31.00
2019-03-16T06:05:56.195Z,31.00
2019-03-16T06:08:27.542Z,32.40
2019-03-16T06:10:59.715Z,38.80
2019-03-16T06:13:31.889Z,38.20
2019-03-16T06:16:05.003Z,48.20
2019-03-16T06:18:36.918Z,31.40
2019-03-16T06:21:08.801Z,20.80
2019-03-16T06:23:40.104Z,26.60
2019-03-16T06:26:12.563Z,25.60
2019-03-16T06:28:50.117Z,26.80
2019-03-16T06:31:21.858Z,27.60
2019-03-16T06:33:53.544Z,24.20
2019-03-16T06:36:25.324Z,26.60
2019-03-16T06:38:57.121Z,22.00
2019-03-16T06:41:28.825Z,26.60
2019-03-16T06:44:00.323Z,25.60
2019-03-16T06:46:31.731Z,24.60
2019-03-16T06:49:03.441Z,26.00
2019-03-16T06:51:35.102Z,22.80
2019-03-16T06:54:06.964Z,23.20
2019-03-16T06:56:39.635Z,22.20
2019-03-16T06:59:11.548Z,22.20
2019-03-16T07:01:43.256Z,22.20
2019-03-16T07:04:14.762Z,23.00
2019-03-16T07:06:46.705Z,26.00
2019-03-16T07:09:18.560Z,22.00
2019-03-16T07:11:50.340Z,23.40
2019-03-16T07:14:22.124Z,23.40
2019-03-16T07:17:02.043Z,19.00
2019-03-16T07:19:27.009Z,23.40
2019-03-16T07:21:58.723Z,25.80
2019-03-16T07:24:30.438Z,26.60
2019-03-16T07:27:07.867Z,24.20
2019-03-16T07:29:41.278Z,24.80
2019-03-16T07:32:13.608Z,26.00
2019-03-16T07:34:46.473Z,25.40
2019-03-16T07:37:19.949Z,25.00
2019-03-16T07:39:51.573Z,26.00
2019-03-16T07:42:23.527Z,23.20
2019-03-16T07:45:07.625Z,25.20
2019-03-16T07:47:28.711Z,24.40
2019-03-16T07:50:00.676Z,25.20
2019-03-16T07:52:32.310Z,25.20
2019-03-16T07:55:04.401Z,25.20
2019-03-16T07:57:40.376Z,24.60
2019-03-16T08:00:10.310Z,24.60
2019-03-16T08:02:42.173Z,26.00
2019-03-16T08:05:18.783Z,22.40
2019-03-16T08:07:48.029Z,23.80
2019-03-16T08:10:19.870Z,22.00
2019-03-16T08:12:52.473Z,23.60
2019-03-16T08:15:28.146Z,23.20
2019-03-16T08:18:01.770Z,22.40
2019-03-16T08:20:35.486Z,21.80
2019-03-16T08:23:09.787Z,25.20
2019-03-16T08:25:42.168Z,26.20
2019-03-16T08:28:16.434Z,30.60
2019-03-16T08:30:48.958Z,31.00
2019-03-16T08:33:20.732Z,28.80
2019-03-16T08:35:52.264Z,25.80
2019-03-16T08:38:23.933Z,24.00
2019-03-16T08:40:55.834Z,22.80
2019-03-16T08:43:28.259Z,22.20
2019-03-16T08:46:00.338Z,15.40
2019-03-16T08:48:32.045Z,23.00
2019-03-16T08:51:04.013Z,24.40
2019-03-16T08:53:36.055Z,23.60
2019-03-16T08:56:08.063Z,22.60
2019-03-16T08:58:39.678Z,22.80
2019-03-16T09:01:12.481Z,23.20
2019-03-16T09:03:44.968Z,23.00
2019-03-16T09:06:17.738Z,17.00
2019-03-16T09:08:50.668Z,23.00
2019-03-16T09:11:22.806Z,23.40
2019-03-16T09:13:56.059Z,24.80
2019-03-16T09:16:29.197Z,24.20
2019-03-16T09:19:02.275Z,23.40
2019-03-16T09:21:35.111Z,21.60
2019-03-16T09:24:07.137Z,22.00
2019-03-16T09:26:39.003Z,22.20
2019-03-16T09:29:15.112Z,21.00
2019-03-16T09:31:44.771Z,21.80
2019-03-16T09:34:16.681Z,19.80
2019-03-16T09:36:48.789Z,24.80
2019-03-16T09:39:20.371Z,21.80
2019-03-16T09:41:52.308Z,21.40
2019-03-16T09:44:23.822Z,23.60
2019-03-16T09:46:55.795Z,20.60
2019-03-16T09:49:27.645Z,23.00
2019-03-16T09:52:00.055Z,23.00
2019-03-16T09:54:32.331Z,23.00
2019-03-16T09:57:04.639Z,23.00
2019-03-16T09:59:39.066Z,24.00
2019-03-16T10:02:11.013Z,23.40
2019-03-16T10:04:43.497Z,23.00
2019-03-16T10:07:16.134Z,23.60
2019-03-16T10:09:48.159Z,21.60
2019-03-16T10:12:20.497Z,20.60
2019-03-16T10:14:53.855Z,23.20
2019-03-16T10:17:30.084Z,22.20
2019-03-16T10:20:05.308Z,24.00
2019-03-16T10:22:38.543Z,23.00
2019-03-16T10:25:35.099Z,23.80
2019-03-16T10:28:08.257Z,22.40
2019-03-16T10:30:41.858Z,23.00
2019-03-16T10:33:14.548Z,22.60
2019-03-16T10:35:48.083Z,25.00
2019-03-16T10:38:22.056Z,21.60
2019-03-16T10:40:55.369Z,22.60
2019-03-16T10:43:27.762Z,24.00
2019-03-16T10:45:59.664Z,23.00
2019-03-16T10:48:31.576Z,20.40
2019-03-16T10:51:03.397Z,22.60
2019-03-16T10:53:35.395Z,25.00
2019-03-16T10:56:08.237Z,23.40
2019-03-16T10:58:40.546Z,22.00
2019-03-16T11:01:12.412Z,22.60
2019-03-16T11:03:45.112Z,23.80
2019-03-16T11:06:17.647Z,20.60
2019-03-16T11:08:50.070Z,23.00
2019-03-16T11:11:22.507Z,21.40
2019-03-16T11:13:55.098Z,22.20
2019-03-16T11:16:27.473Z,19.40
2019-03-16T11:18:59.834Z,18.00
2019-03-16T11:21:32.010Z,22.20
2019-03-16T11:24:04.186Z,23.60
2019-03-16T11:26:38.065Z,22.40
2019-03-16T11:29:10.835Z,17.80
2019-03-16T11:31:42.903Z,23.40
2019-03-16T11:34:15.875Z,19.00
2019-03-16T11:36:48.398Z,20.80
2019-03-16T11:39:20.727Z,20.60
2019-03-16T11:41:52.844Z,17.20
2019-03-16T11:44:25.775Z,18.80
2019-03-16T11:46:58.353Z,19.80
2019-03-16T11:49:30.149Z,20.80
2019-03-16T11:52:02.232Z,21.20
2019-03-16T11:54:35.142Z,19.60
2019-03-16T11:57:06.751Z,19.80
2019-03-16T11:59:38.816Z,21.00
2019-03-16T12:02:10.429Z,20.00
2019-03-16T12:04:42.187Z,23.20
2019-03-16T12:07:14.716Z,25.20
2019-03-16T12:09:47.138Z,25.20
2019-03-16T12:12:18.983Z,25.00
2019-03-16T12:14:50.826Z,24.60
2019-03-16T12:17:22.286Z,24.80
2019-03-16T12:19:54.783Z,24.80
2019-03-16T12:22:27.130Z,25.00
2019-03-16T12:24:59.460Z,26.00
2019-03-16T12:27:31.324Z,26.40
2019-03-16T12:30:03.686Z,26.00
2019-03-16T12:32:36.187Z,27.00
2019-03-16T12:35:09.710Z,26.20
2019-03-16T12:37:42.173Z,26.40
2019-03-16T12:40:14.898Z,25.60
2019-03-16T12:42:47.403Z,26.20
2019-03-16T12:45:20.743Z,25.00
2019-03-16T12:47:54.613Z,27.60
2019-03-16T12:50:27.828Z,27.40
2019-03-16T12:52:59.973Z,28.80
2019-03-16T12:55:33.479Z,27.20
2019-03-16T12:58:13.254Z,31.00
2019-03-16T13:00:45.016Z,33.20
2019-03-16T13:03:16.763Z,33.40
2019-03-16T13:05:48.441Z,33.00
2019-03-16T13:08:20.226Z,33.00
2019-03-16T13:10:52.943Z,35.00
2019-03-16T13:13:25.361Z,36.40
2019-03-16T13:15:56.975Z,36.40
2019-03-16T13:18:28.671Z,34.60
2019-03-16T13:21:00.304Z,40.40
2019-03-16T13:23:31.797Z,40.20
2019-03-16T13:26:03.801Z,43.20
2019-03-16T13:28:36.474Z,48.80
2019-03-16T13:31:08.839Z,50.60
2019-03-16T13:33:40.732Z,46.60
2019-03-16T13:36:13.224Z,49.40
2019-03-16T13:38:45.528Z,51.40
2019-03-16T13:41:17.911Z,48.00
2019-03-16T13:43:49.979Z,48.00
2019-03-16T13:46:21.388Z,46.00
2019-03-16T13:48:53.051Z,45.60
2019-03-16T13:51:24.845Z,49.80
2019-03-16T13:53:56.933Z,46.20
2019-03-16T13:56:28.805Z,47.40
2019-03-16T13:59:00.888Z,47.40
2019-03-16T14:01:32.794Z,52.20
2019-03-16T14:04:05.312Z,50.60
2019-03-16T14:06:37.782Z,47.60
2019-03-16T14:09:10.062Z,43.20
2019-03-16T14:11:42.046Z,46.20
2019-03-16T14:14:13.428Z,50.60
2019-03-16T14:16:45.024Z,47.40
2019-03-16T14:19:16.919Z,45.80
2019-03-16T14:21:48.730Z,51.20
2019-03-16T14:24:21.195Z,51.00
2019-03-16T14:26:52.740Z,51.60
2019-03-16T14:29:24.391Z,55.40
2019-03-16T14:31:56.171Z,54.20
2019-03-16T14:34:28.357Z,58.20
2019-03-16T14:37:01.514Z,58.00
2019-03-16T14:39:33.216Z,58.40
2019-03-16T14:42:05.107Z,60.00
2019-03-16T14:44:36.472Z,58.60
2019-03-16T14:47:09.035Z,58.40
2019-03-16T14:49:41.037Z,59.80
2019-03-16T14:52:12.747Z,60.40
2019-03-16T14:54:44.967Z,64.20
2019-03-16T14:57:16.663Z,57.20
2019-03-16T14:59:48.206Z,63.60
2019-03-16T15:02:20.201Z,64.40
2019-03-16T15:04:52.056Z,66.00
2019-03-16T15:07:23.709Z,70.60
2019-03-16T15:09:55.354Z,70.80
2019-03-16T15:12:26.803Z,74.40
2019-03-16T15:14:58.165Z,63.60
2019-03-16T15:17:29.776Z,63.20
2019-03-16T15:20:01.236Z,64.80
2019-03-16T15:22:33.113Z,68.40
2019-03-16T15:25:05.044Z,68.40
2019-03-16T15:27:36.897Z,67.60
2019-03-16T15:30:10.421Z,65.60
2019-03-16T15:32:41.974Z,64.00
2019-03-16T15:35:14.232Z,64.00
2019-03-16T15:37:45.883Z,67.00
2019-03-16T15:40:17.463Z,71.40
2019-03-16T15:42:49.087Z,69.40
2019-03-16T15:45:21.955Z,65.20
2019-03-16T15:47:53.586Z,69.20
2019-03-16T15:50:25.098Z,65.00
2019-03-16T15:52:56.452Z,70.00
2019-03-16T15:55:28.214Z,68.00
2019-03-16T15:58:07.907Z,65.40
2019-03-16T16:00:33.163Z,69.60
2019-03-16T16:03:12.475Z,65.60
2019-03-16T16:05:42.727Z,71.60
2019-03-16T16:08:12.979Z,66.60
2019-03-16T16:10:43.232Z,72.80
2019-03-16T16:13:13.326Z,75.80
2019-03-16T16:15:43.617Z,74.20
2019-03-16T16:18:13.845Z,69.00
2019-03-16T16:20:44.275Z,65.00
2019-03-16T16:23:14.496Z,72.00
2019-03-16T16:25:44.898Z,72.80
2019-03-16T16:28:19.362Z,75.00
2019-03-16T16:30:49.601Z,75.80
2019-03-16T16:33:19.949Z,77.00
2019-03-16T16:35:50.377Z,71.40
2019-03-16T16:38:20.561Z,72.80
2019-03-16T16:40:51.482Z,72.80
2019-03-16T16:43:21.700Z,71.00
2019-03-16T16:45:52.213Z,70.20
2019-03-16T16:48:22.650Z,70.40
2019-03-16T16:50:53.040Z,76.60
2019-03-16T16:53:23.222Z,74.00
2019-03-16T16:55:54.052Z,74.60
2019-03-16T16:58:24.159Z,68.80
2019-03-16T17:00:54.643Z,76.80
2019-03-16T17:03:24.970Z,70.80
2019-03-16T17:05:56.442Z,74.80
2019-03-16T17:08:26.729Z,77.20
2019-03-16T17:10:57.310Z,73.40
2019-03-16T17:13:27.569Z,75.20
2019-03-16T17:15:58.196Z,79.40
2019-03-16T17:18:28.223Z,72.80
2019-03-16T17:20:58.303Z,77.40
2019-03-16T17:23:28.962Z,73.20
2019-03-16T17:25:59.368Z,77.80
2019-03-16T17:28:29.296Z,75.80
2019-03-16T17:31:00.293Z,70.60
2019-03-16T17:33:30.261Z,73.80
2019-03-16T17:36:00.500Z,77.00
2019-03-16T17:38:30.799Z,74.60
2019-03-16T17:41:00.942Z,76.40
2019-03-16T17:43:31.147Z,75.40
2019-03-16T17:46:01.373Z,73.80
2019-03-16T17:48:31.318Z,77.80
2019-03-16T17:51:01.300Z,71.60
2019-03-16T17:53:31.488Z,75.60
2019-03-16T17:56:01.540Z,73.20
2019-03-16T17:58:31.915Z,75.00
2019-03-16T18:01:02.310Z,72.40
2019-03-16T18:03:32.426Z,71.00
2019-03-16T18:06:02.635Z,71.40
2019-03-16T18:08:32.956Z,73.00
2019-03-16T18:11:03.215Z,73.80
2019-03-16T18:13:33.551Z,71.40
2019-03-16T18:16:03.616Z,72.80
2019-03-16T18:18:54.043Z,73.40
2019-03-16T18:21:24.494Z,71.60
2019-03-16T18:23:54.431Z,70.40
2019-03-16T18:26:24.653Z,73.60
2019-03-16T18:28:55.411Z,74.20
2019-03-16T18:31:25.611Z,76.60
2019-03-16T18:33:56.017Z,72.80
2019-03-16T18:36:26.022Z,71.40
2019-03-16T18:38:56.680Z,70.20
2019-03-16T18:41:27.058Z,71.20
2019-03-16T18:43:57.533Z,71.00
2019-03-16T18:46:27.903Z,69.80
2019-03-16T18:48:57.989Z,72.60
2019-03-16T18:51:28.144Z,67.60
2019-03-16T18:53:58.435Z,65.20
2019-03-16T18:56:28.667Z,67.40
2019-03-16T18:58:59.229Z,70.20
2019-03-16T19:01:29.387Z,74.20
2019-03-16T19:03:59.607Z,76.60
2019-03-16T19:06:29.727Z,71.60
2019-03-16T19:08:59.882Z,74.80
2019-03-16T19:11:30.320Z,75.80
2019-03-16T19:14:00.696Z,71.80
2019-03-16T19:16:31.070Z,68.60
2019-03-16T19:19:01.300Z,69.00
2019-03-16T19:21:32.492Z,69.40
2019-03-16T19:24:02.395Z,69.60
2019-03-16T19:26:32.365Z,73.60
2019-03-16T19:29:02.922Z,68.60
2019-03-16T19:31:34.849Z,67.20
2019-03-16T19:34:04.959Z,65.60
2019-03-16T19:36:34.984Z,65.80
2019-03-16T19:39:05.479Z,69.00
2019-03-16T19:41:35.698Z,75.20
2019-03-16T19:44:05.598Z,70.60
2019-03-16T19:46:35.682Z,72.20
2019-03-16T19:49:07.163Z,70.40
2019-03-16T19:51:37.350Z,70.20
2019-03-16T19:54:07.695Z,71.40
2019-03-16T19:56:37.814Z,69.80
2019-03-16T19:59:08.123Z,72.60
2019-03-16T20:01:38.210Z,69.20
2019-03-16T20:04:08.593Z,69.60
2019-03-16T20:06:38.742Z,63.40
2019-03-16T20:09:09.176Z,69.20
2019-03-16T20:11:39.346Z,70.60
2019-03-16T20:14:09.553Z,67.00
2019-03-16T20:16:39.790Z,63.60
2019-03-16T20:19:09.866Z,62.00
2019-03-16T20:21:40.134Z,63.20
2019-03-16T20:24:10.384Z,66.80
2019-03-16T20:26:40.946Z,69.00
2019-03-16T20:29:11.569Z,67.20
2019-03-16T20:31:46.708Z,64.00
2019-03-16T20:34:14.336Z,65.60
2019-03-16T20:36:44.855Z,68.80
2019-03-16T20:39:15.491Z,64.60
2019-03-16T20:41:45.681Z,64.80
2019-03-16T20:44:16.132Z,69.00
2019-03-16T20:46:46.279Z,64.60
2019-03-16T20:49:16.690Z,64.00
2019-03-16T20:51:47.365Z,70.80
2019-03-16T20:54:17.489Z,73.40
2019-03-16T20:56:48.428Z,70.40
2019-03-16T20:59:18.420Z,70.40
2019-03-16T21:01:48.806Z,75.20
2019-03-16T21:04:18.912Z,73.80
2019-03-16T21:06:49.353Z,71.40
2019-03-16T21:09:19.460Z,78.00
2019-03-16T21:11:49.847Z,77.20
2019-03-16T21:14:20.104Z,72.00
2019-03-16T21:16:50.263Z,77.80
2019-03-16T21:19:20.559Z,74.40
2019-03-16T21:21:50.832Z,75.20
2019-03-16T21:24:20.944Z,73.80
2019-03-16T21:26:52.783Z,74.40
2019-03-16T21:29:26.240Z,74.20
2019-03-16T21:31:55.749Z,73.80
2019-03-16T21:34:25.791Z,71.60
2019-03-16T21:36:56.047Z,76.20
2019-03-16T21:39:26.009Z,78.80
2019-03-16T21:41:56.257Z,75.00
2019-03-16T21:44:26.483Z,77.40
2019-03-16T21:46:57.740Z,72.60
2019-03-16T21:49:27.756Z,74.00
2019-03-16T21:51:58.121Z,71.20
2019-03-16T21:54:28.306Z,73.40
2019-03-16T21:56:58.738Z,71.20
2019-03-16T21:59:28.938Z,82.20
2019-03-16T22:01:59.319Z,77.40
2019-03-16T22:04:29.387Z,80.60
2019-03-16T22:06:59.727Z,78.60
2019-03-16T22:09:29.906Z,78.00
2019-03-16T22:12:00.238Z,81.60
2019-03-16T22:14:30.213Z,74.00
2019-03-16T22:17:02.026Z,79.60
2019-03-16T22:19:32.278Z,78.20
2019-03-16T22:22:02.604Z,80.80
2019-03-16T22:24:33.049Z,82.40
2019-03-16T22:27:03.329Z,72.80
2019-03-16T22:29:33.463Z,80.80
2019-03-16T22:32:04.018Z,88.40
2019-03-16T22:34:33.990Z,82.80
2019-03-16T22:37:04.513Z,79.00
2019-03-16T22:39:34.583Z,79.60
2019-03-16T22:42:04.653Z,83.80
2019-03-16T22:44:35.162Z,86.80
2019-03-16T22:47:05.364Z,85.60
2019-03-16T22:49:35.309Z,88.20
2019-03-16T22:52:05.369Z,81.80
2019-03-16T22:54:36.508Z,85.80
2019-03-16T22:57:06.625Z,83.80
2019-03-16T22:59:36.546Z,83.20
2019-03-16T23:02:07.624Z,87.60
2019-03-16T23:04:37.901Z,85.80
2019-03-16T23:07:08.211Z,87.80
2019-03-16T23:09:38.599Z,83.40
2019-03-16T23:12:08.919Z,88.00
2019-03-16T23:14:38.948Z,87.40
2019-03-16T23:17:09.256Z,85.40
2019-03-16T23:19:39.402Z,83.00
2019-03-16T23:22:09.648Z,86.40
2019-03-16T23:24:40.033Z,88.20
2019-03-16T23:27:10.244Z,84.40
2019-03-16T23:29:40.773Z,92.40
2019-03-16T23:32:11.148Z,77.40
2019-03-16T23:34:41.837Z,88.60
2019-03-16T23:37:12.304Z,85.20
2019-03-16T23:39:42.615Z,87.80
2019-03-16T23:42:12.987Z,91.20
2019-03-16T23:44:43.136Z,82.80
2019-03-16T23:47:13.316Z,86.00
2019-03-16T23:49:43.463Z,85.20
2019-03-16T23:52:13.841Z,82.60
2019-03-16T23:54:44.256Z,85.00
2019-03-16T23:57:14.472Z,75.00
2019-03-16T23:59:44.650Z,91.60
